Time;durP1;ratioP1;P1;durP2;ratioP2;P2;SDS_P1;SDS_P2;PMS_P1;PMS_P2;Temp;Humidity;BMP_temperature;BMP_pressure;BME280_temperature;BME280_humidity;BME280_pressure;Samples;Min_cycle;Max_cycle;Signal;HPM_P1;HPM_P2
2024/02/27 00:00:03;;;;;;;;;;;;;;;2.00;100.00;101286.20;108015;1254;71245;-66
2024/02/27 00:02:35;;;;;;;;;;;;;;;2.01;100.00;101288.95;108015;1254;72779;-65
2024/02/27 00:05:03;;;;;;;;;;;;;;;1.99;100.00;101292.14;108069;1255;61247;-66
2024/02/27 00:07:31;;;;;;;;;;;;;;;1.99;100.00;101294.29;108038;1255;61443;-65
2024/02/27 00:09:58;;;;;;;;;;;;;;;1.98;100.00;101288.03;108091;1254;73426;-65
2024/02/27 00:12:26;;;;;;;;;;;;;;;1.97;100.00;101285.70;108141;1254;72669;-65
2024/02/27 00:14:54;;;;;;;;;;;;;;;1.94;100.00;101279.59;108386;1256;70854;-65
2024/02/27 00:17:21;;;;;;;;;;;;;;;1.91;100.00;101285.37;107975;1254;60398;-65
2024/02/27 00:19:49;;;;;;;;;;;;;;;1.87;100.00;101288.49;107958;1254;61109;-65
2024/02/27 00:22:17;;;;;;;;;;;;;;;1.80;100.00;101285.23;108100;1254;74682;-64
2024/02/27 00:24:44;;;;;;;;;;;;;;;1.76;100.00;101291.66;108058;1253;71489;-65
2024/02/27 00:27:12;;;;;;;;;;;;;;;1.73;100.00;101289.39;108188;1253;71153;-65
2024/02/27 00:29:40;;;;;;;;;;;;;;;1.70;100.00;101292.41;108158;1253;61192;-67
2024/02/27 00:32:07;;;;;;;;;;;;;;;1.67;100.00;101289.09;108101;1254;61144;-67
2024/02/27 00:34:36;;;;;;;;;;;;;;;1.66;100.00;101291.96;108039;1254;73634;-65
2024/02/27 00:37:03;;;;;;;;;;;;;;;1.63;100.00;101292.52;108004;1254;72097;-65
2024/02/27 00:39:31;;;;;;;;;;;;;;;1.59;100.00;101289.80;107914;1256;72039;-67
2024/02/27 00:42:00;;;;;;;;;;;;;;;1.58;100.00;101285.36;108114;1254;61124;-65
2024/02/27 00:44:28;;;;;;;;;;;;;;;1.57;100.00;101287.89;108197;1254;61237;-65
2024/02/27 00:46:55;;;;;;;;;;;;;;;1.54;100.00;101288.14;108133;1255;73822;-66
2024/02/27 00:49:24;;;;;;;;;;;;;;;1.50;100.00;101286.33;108003;1254;70636;-67
2024/02/27 00:51:51;;;;;;;;;;;;;;;1.48;100.00;101284.66;108046;1256;72692;-66
2024/02/27 00:54:20;;;;;;;;;;;;;;;1.47;100.00;101282.96;108044;1254;61371;-66
2024/02/27 00:56:47;;;;;;;;;;;;;;;1.46;100.00;101280.15;108166;1259;59975;-67
2024/02/27 00:59:15;;;;;;;;;;;;;;;1.44;100.00;101278.90;107985;1254;72826;-66
2024/02/27 01:01:43;;;;;;;;;;;;;;;1.44;100.00;101278.05;108148;1254;73014;-66
2024/02/27 01:04:10;;;;;;;;;;;;;;;1.41;100.00;101275.94;108142;1254;72561;-66
2024/02/27 01:06:38;;;;;;;;;;;;;;;1.39;100.00;101273.23;108043;1254;61004;-66
2024/02/27 01:09:06;;;;;;;;;;;;;;;1.35;100.00;101276.08;108051;1254;60597;-66
2024/02/27 01:11:34;;;;;;;;;;;;;;;1.34;100.00;101269.35;108012;1254;74610;-66
2024/02/27 01:14:02;;;;;;;;;;;;;;;1.33;100.00;101266.39;108028;1257;72728;-66
2024/02/27 01:16:29;;;;;;;;;;;;;;;1.32;100.00;101264.36;108062;1254;71646;-66
2024/02/27 01:18:57;;;;;;;;;;;;;;;1.32;100.00;101262.61;108135;1254;61669;-66
2024/02/27 01:21:25;;;;;;;;;;;;;;;1.32;100.00;101258.11;108117;1254;61126;-66
2024/02/27 01:23:53;;;;;;;;;;;;;;;1.31;100.00;101267.09;108120;1254;74678;-66
2024/02/27 01:26:21;;;;;;;;;;;;;;;1.29;100.00;101266.77;108088;1254;72740;-66
2024/02/27 01:28:48;;;;;;;;;;;;;;;1.26;100.00;101265.46;108081;1254;71491;-66
2024/02/27 01:31:16;;;;;;;;;;;;;;;1.21;100.00;101263.52;107989;1255;61206;-66
2024/02/27 01:33:44;;;;;;;;;;;;;;;1.16;100.00;101263.56;108066;1254;61238;-67
2024/02/27 01:36:12;;;;;;;;;;;;;;;1.11;100.00;101263.80;108049;1254;73438;-66
2024/02/27 01:38:39;;;;;;;;;;;;;;;1.08;100.00;101263.75;108039;1254;71270;-67
2024/02/27 01:41:07;;;;;;;;;;;;;;;1.07;100.00;101269.36;108039;1257;70862;-66
2024/02/27 01:43:34;;;;;;;;;;;;;;;1.06;100.00;101266.67;108178;1254;61116;-66
2024/02/27 01:46:03;;;;;;;;;;;;;;;1.04;100.00;101270.20;108062;1254;61077;-67
2024/02/27 01:48:33;;;;;;;;;;;;;;;1.00;100.00;101270.52;108120;1254;73374;-66
2024/02/27 01:51:01;;;;;;;;;;;;;;;0.96;100.00;101268.69;108020;1257;71475;-66
2024/02/27 01:53:29;;;;;;;;;;;;;;;0.91;100.00;101273.00;108295;1257;71142;-66
2024/02/27 01:55:57;;;;;;;;;;;;;;;0.86;100.00;101269.00;108082;1254;61064;-65
2024/02/27 01:58:25;;;;;;;;;;;;;;;0.85;100.00;101270.85;108091;1254;61091;-67
2024/02/27 02:00:54;;;;;;;;;;;;;;;0.84;100.00;101267.67;108055;1253;74682;-66
2024/02/27 02:03:22;;;;;;;;;;;;;;;0.83;100.00;101274.90;108154;1258;72089;-67
2024/02/27 02:05:50;;;;;;;;;;;;;;;0.83;100.00;101274.55;108187;1254;72633;-66
2024/02/27 02:08:17;;;;;;;;;;;;;;;0.83;100.00;101273.72;108102;1255;62830;-66
2024/02/27 02:10:45;;;;;;;;;;;;;;;0.82;100.00;101279.44;108054;1255;61006;-66
2024/02/27 02:13:14;;;;;;;;;;;;;;;0.78;100.00;101283.71;107787;1254;72414;-67
2024/02/27 02:15:42;;;;;;;;;;;;;;;0.75;100.00;101282.30;107972;1257;71251;-66
2024/02/27 02:18:09;;;;;;;;;;;;;;;0.72;100.00;101276.77;107966;1254;72318;-66
2024/02/27 02:20:39;;;;;;;;;;;;;;;0.69;100.00;101278.04;108054;1254;61256;-66
2024/02/27 02:23:07;;;;;;;;;;;;;;;0.69;100.00;101286.49;108082;1254;61138;-67
2024/02/27 02:25:35;;;;;;;;;;;;;;;0.68;100.00;101283.28;108030;1254;74779;-68
2024/02/27 02:28:03;;;;;;;;;;;;;;;0.66;100.00;101288.34;108062;1254;71251;-66
2024/02/27 02:30:31;;;;;;;;;;;;;;;0.65;100.00;101286.98;108143;1254;72464;-67
2024/02/27 02:32:59;;;;;;;;;;;;;;;0.64;100.00;101291.66;108169;1256;59654;-66
2024/02/27 02:35:26;;;;;;;;;;;;;;;0.63;100.00;101292.41;108084;1254;61070;-67
2024/02/27 02:37:54;;;;;;;;;;;;;;;0.62;100.00;101288.31;108146;1254;74665;-68
2024/02/27 02:40:22;;;;;;;;;;;;;;;0.61;100.00;101290.62;108179;1257;72029;-66
2024/02/27 02:42:49;;;;;;;;;;;;;;;0.61;100.00;101287.11;108015;1255;71157;-66
2024/02/27 02:45:17;;;;;;;;;;;;;;;0.58;100.00;101288.49;108060;1259;61247;-66
2024/02/27 02:47:45;;;;;;;;;;;;;;;0.56;100.00;101290.58;108119;1255;61116;-67
2024/02/27 02:50:13;;;;;;;;;;;;;;;0.52;100.00;101289.69;108142;1256;73465;-67
2024/02/27 02:52:43;;;;;;;;;;;;;;;0.49;100.00;101290.48;108252;1257;71538;-67
2024/02/27 02:55:12;;;;;;;;;;;;;;;0.49;100.00;101291.60;108028;1254;70334;-67
2024/02/27 02:57:39;;;;;;;;;;;;;;;0.49;100.00;101293.38;108071;1255;60272;-68
2024/02/27 03:00:11;;;;;;;;;;;;;;;0.44;100.00;101292.68;108162;1255;61251;-67
2024/02/27 03:02:39;;;;;;;;;;;;;;;0.41;100.00;101291.26;107990;1254;73366;-67
2024/02/27 03:05:12;;;;;;;;;;;;;;;0.39;100.00;101289.91;107982;1254;71692;-68
2024/02/27 03:07:40;;;;;;;;;;;;;;;0.38;100.00;101290.05;108042;1256;71439;-67
2024/02/27 03:10:08;;;;;;;;;;;;;;;0.39;100.00;101292.73;108093;1257;61981;-66
2024/02/27 03:12:39;;;;;;;;;;;;;;;0.40;100.00;101294.02;108088;1254;61089;-66
2024/02/27 03:15:07;;;;;;;;;;;;;;;0.43;100.00;101296.63;108381;1254;73374;-66
2024/02/27 03:17:35;;;;;;;;;;;;;;;0.45;100.00;101297.40;108046;1254;72757;-66
2024/02/27 03:20:05;;;;;;;;;;;;;;;0.41;100.00;101295.38;108187;1257;72728;-67
2024/02/27 03:22:33;;;;;;;;;;;;;;;0.37;100.00;101298.33;107956;1256;61101;-66
2024/02/27 03:25:05;;;;;;;;;;;;;;;0.33;100.00;101295.66;107984;1254;61011;-65
2024/02/27 03:27:33;;;;;;;;;;;;;;;0.30;100.00;101296.40;108215;1256;73614;-67
2024/02/27 03:30:02;;;;;;;;;;;;;;;0.24;100.00;101297.48;108028;1254;70643;-66
2024/02/27 03:32:29;;;;;;;;;;;;;;;0.18;100.00;101296.23;108164;1254;71388;-66
2024/02/27 03:34:57;;;;;;;;;;;;;;;0.12;100.00;101296.25;108043;1255;61160;-67
2024/02/27 03:37:25;;;;;;;;;;;;;;;0.08;100.00;101299.88;108106;1254;61224;-66
2024/02/27 03:39:53;;;;;;;;;;;;;;;0.07;100.00;101302.21;108130;1254;74355;-67
2024/02/27 03:42:20;;;;;;;;;;;;;;;0.09;100.00;101305.70;107871;1254;71457;-64
2024/02/27 03:44:48;;;;;;;;;;;;;;;0.07;100.00;101306.23;108456;1255;71408;-66
2024/02/27 03:47:17;;;;;;;;;;;;;;;0.04;100.00;101306.45;108041;1254;61306;-66
2024/02/27 03:49:45;;;;;;;;;;;;;;;-0.01;100.00;101308.56;107967;1255;59831;-66
2024/02/27 03:52:13;;;;;;;;;;;;;;;-0.06;100.00;101309.89;108031;1254;73642;-67
2024/02/27 03:54:40;;;;;;;;;;;;;;;-0.09;100.00;101307.99;108197;1254;71425;-67
2024/02/27 03:57:09;;;;;;;;;;;;;;;-0.14;100.00;101311.36;108137;1259;71327;-67
2024/02/27 03:59:37;;;;;;;;;;;;;;;-0.39;100.00;101310.52;108078;1254;61113;-68
2024/02/27 04:02:07;;;;;;;;;;;;;;;-0.40;100.00;101316.65;108082;1253;61049;-67
2024/02/27 04:04:34;;;;;;;;;;;;;;;-0.20;100.00;101318.16;108043;1254;73348;-68
2024/02/27 04:07:02;;;;;;;;;;;;;;;-0.15;100.00;101316.20;108153;1254;71446;-67
2024/02/27 04:09:30;;;;;;;;;;;;;;;-0.11;100.00;101321.20;108151;1254;72717;-66
2024/02/27 04:11:58;;;;;;;;;;;;;;;-0.09;100.00;101318.46;108120;1254;61268;-67
2024/02/27 04:14:26;;;;;;;;;;;;;;;-0.07;100.00;101322.06;108059;1254;61151;-66
2024/02/27 04:16:53;;;;;;;;;;;;;;;-0.05;100.00;101322.95;108131;1253;73619;-67
2024/02/27 04:19:21;;;;;;;;;;;;;;;-0.03;100.00;101327.67;108063;1257;72696;-67
2024/02/27 04:21:49;;;;;;;;;;;;;;;-0.01;100.00;101324.80;108177;1257;72732;-66
2024/02/27 04:24:16;;;;;;;;;;;;;;;0.01;100.00;101324.48;108117;1256;61125;-67
2024/02/27 04:26:44;;;;;;;;;;;;;;;0.04;100.00;101327.63;108084;1254;61378;-66
2024/02/27 04:29:12;;;;;;;;;;;;;;;0.04;100.00;101330.23;107993;1257;73415;-68
2024/02/27 04:31:43;;;;;;;;;;;;;;;0.04;100.00;101332.02;107969;1254;72454;-68
2024/02/27 04:34:11;;;;;;;;;;;;;;;0.03;100.00;101337.47;108098;1254;71326;-67
2024/02/27 04:36:43;;;;;;;;;;;;;;;0.03;100.00;101339.73;108141;1254;60971;-66
2024/02/27 04:39:12;;;;;;;;;;;;;;;0.04;100.00;101339.64;108125;1254;61211;-66
2024/02/27 04:41:40;;;;;;;;;;;;;;;0.02;100.00;101341.81;107999;1257;74570;-70
2024/02/27 04:44:11;;;;;;;;;;;;;;;-0.01;100.00;101344.96;107945;1254;71176;-67
2024/02/27 04:46:39;;;;;;;;;;;;;;;-0.05;100.00;101344.16;107957;1257;72110;-67
2024/02/27 04:49:06;;;;;;;;;;;;;;;-0.09;100.00;101348.75;107984;1254;61132;-67
2024/02/27 04:51:35;;;;;;;;;;;;;;;-0.13;100.00;101347.52;107968;1257;61111;-66
2024/02/27 04:54:03;;;;;;;;;;;;;;;-0.17;100.00;101348.63;108017;1254;74591;-67
2024/02/27 04:56:31;;;;;;;;;;;;;;;-0.18;100.00;101350.16;107960;1254;72821;-67
2024/02/27 04:59:05;;;;;;;;;;;;;;;-0.19;100.00;101353.21;108154;1254;72397;-66
2024/02/27 05:01:37;;;;;;;;;;;;;;;-0.19;100.00;101357.95;108174;1256;61311;-66
2024/02/27 05:04:05;;;;;;;;;;;;;;;-0.18;100.00;101363.05;108138;1253;61155;-66
2024/02/27 05:06:33;;;;;;;;;;;;;;;-0.18;100.00;101366.48;108127;1254;74644;-67
2024/02/27 05:09:00;;;;;;;;;;;;;;;-0.19;100.00;101364.84;108180;1254;71463;-67
2024/02/27 05:11:28;;;;;;;;;;;;;;;-0.17;100.00;101368.11;108005;1259;72687;-67
2024/02/27 05:13:56;;;;;;;;;;;;;;;-0.14;100.00;101373.18;108130;1254;61202;-66
2024/02/27 05:16:24;;;;;;;;;;;;;;;-0.12;100.00;101372.73;107997;1254;61431;-66
2024/02/27 05:18:51;;;;;;;;;;;;;;;-0.09;100.00;101370.63;108065;1253;73674;-66
2024/02/27 05:21:19;;;;;;;;;;;;;;;-0.06;100.00;101378.70;108050;1254;71440;-66
2024/02/27 05:23:47;;;;;;;;;;;;;;;-0.03;100.00;101383.18;107975;1254;71338;-66
2024/02/27 05:26:15;;;;;;;;;;;;;;;-0.00;100.00;101383.02;108052;1257;61133;-66
2024/02/27 05:28:42;;;;;;;;;;;;;;;0.04;100.00;101383.98;108135;1254;61255;-66
2024/02/27 05:31:22;;;;;;;;;;;;;;;0.08;100.00;101387.23;108117;1255;73446;-67
2024/02/27 05:33:53;;;;;;;;;;;;;;;0.13;100.00;101388.80;107977;1254;72780;-66
2024/02/27 05:36:21;;;;;;;;;;;;;;;0.18;100.00;101393.09;107986;1257;72489;-66
2024/02/27 05:38:50;;;;;;;;;;;;;;;0.21;100.00;101395.95;108116;1254;61171;-66
2024/02/27 05:41:19;;;;;;;;;;;;;;;0.25;100.00;101400.08;108033;1258;61090;-66
2024/02/27 05:43:50;;;;;;;;;;;;;;;0.28;100.00;101403.77;108118;1254;73624;-66
2024/02/27 05:46:17;;;;;;;;;;;;;;;0.33;100.00;101409.41;108030;1253;71265;-66
2024/02/27 05:48:45;;;;;;;;;;;;;;;0.36;100.00;101405.98;108136;1254;71831;-66
2024/02/27 05:51:13;;;;;;;;;;;;;;;0.41;100.00;101407.91;108025;1257;60114;-65
2024/02/27 05:53:42;;;;;;;;;;;;;;;0.45;100.00;101411.14;108074;1256;61279;-66
2024/02/27 05:56:10;;;;;;;;;;;;;;;0.52;100.00;101410.64;107996;1255;73415;-66
2024/02/27 05:58:38;;;;;;;;;;;;;;;0.57;100.00;101415.08;108030;1257;71778;-67
2024/02/27 06:01:06;;;;;;;;;;;;;;;0.64;100.00;101412.55;108013;1257;72703;-67
2024/02/27 06:03:35;;;;;;;;;;;;;;;0.71;100.00;101408.45;107998;1256;61138;-67
2024/02/27 06:06:03;;;;;;;;;;;;;;;0.78;100.00;101410.29;107976;1256;61057;-67
2024/02/27 06:08:31;;;;;;;;;;;;;;;0.85;100.00;101411.67;108048;1254;73363;-66
2024/02/27 06:10:58;;;;;;;;;;;;;;;0.92;100.00;101412.27;108037;1254;71785;-66
2024/02/27 06:13:26;;;;;;;;;;;;;;;0.99;100.00;101420.05;107995;1253;72725;-67
2024/02/27 06:15:57;;;;;;;;;;;;;;;1.05;100.00;101417.29;108056;1257;61269;-66
2024/02/27 06:18:24;;;;;;;;;;;;;;;1.12;100.00;101421.20;107966;1254;61126;-66
2024/02/27 06:23:40;;;;;;;;;;;;;;;1.27;100.00;101430.29;108305;1254;71469;-70
2024/02/27 06:26:09;;;;;;;;;;;;;;;1.34;100.00;101431.13;108020;1259;72451;-67
2024/02/27 06:28:36;;;;;;;;;;;;;;;1.43;100.00;101430.16;108060;1256;61122;-66
2024/02/27 06:31:04;;;;;;;;;;;;;;;1.50;100.00;101433.25;108042;1255;60369;-67
2024/02/27 06:33:33;;;;;;;;;;;;;;;1.54;100.00;101431.56;108004;1259;74718;-67
2024/02/27 06:36:02;;;;;;;;;;;;;;;1.58;100.00;101436.46;108054;1254;72967;-66
2024/02/27 06:38:29;;;;;;;;;;;;;;;1.61;100.00;101435.45;107936;1257;72644;-67
2024/02/27 06:40:57;;;;;;;;;;;;;;;1.62;100.00;101442.69;108205;1253;60891;-67
2024/02/27 06:43:24;;;;;;;;;;;;;;;1.63;100.00;101436.29;108191;1254;60978;-68
2024/02/27 06:45:52;;;;;;;;;;;;;;;1.64;100.00;101436.35;108230;1254;74688;-68
2024/02/27 06:48:20;;;;;;;;;;;;;;;1.65;100.00;101440.09;108079;1254;72882;-67
2024/02/27 06:50:54;;;;;;;;;;;;;;;1.69;100.00;101443.88;108076;1254;71441;-66
2024/02/27 06:53:22;;;;;;;;;;;;;;;1.72;100.00;101442.08;108118;1254;60966;-67
2024/02/27 06:55:50;;;;;;;;;;;;;;;1.74;100.00;101441.05;107972;1254;61105;-67
2024/02/27 06:58:18;;;;;;;;;;;;;;;1.77;100.00;101439.05;108039;1254;73341;-67
2024/02/27 07:00:46;;;;;;;;;;;;;;;1.81;100.00;101441.02;108034;1254;72701;-68
2024/02/27 07:03:13;;;;;;;;;;;;;;;1.85;100.00;101444.27;107960;1260;71499;-66
2024/02/27 07:05:41;;;;;;;;;;;;;;;1.89;100.00;101446.62;107927;1257;61207;-66
2024/02/27 07:08:20;;;;;;;;;;;;;;;1.91;100.00;101444.79;107973;1254;61081;-67
2024/02/27 07:10:48;;;;;;;;;;;;;;;1.96;100.00;101445.32;107998;1253;73353;-66
2024/02/27 07:13:17;;;;;;;;;;;;;;;2.01;100.00;101441.99;108058;1259;75091;-68
2024/02/27 07:15:46;;;;;;;;;;;;;;;2.07;100.00;101444.22;108052;1257;71743;-67
2024/02/27 07:18:15;;;;;;;;;;;;;;;2.11;100.00;101441.91;108055;1257;61210;-67
2024/02/27 07:20:45;;;;;;;;;;;;;;;2.20;100.00;101447.03;108060;1254;61094;-67
2024/02/27 07:23:13;;;;;;;;;;;;;;;2.29;100.00;101451.25;108000;1254;74518;-66
2024/02/27 07:25:41;;;;;;;;;;;;;;;2.35;100.00;101450.53;108104;1254;73098;-68
2024/02/27 07:28:09;;;;;;;;;;;;;;;2.41;100.00;101444.40;107920;1255;218034;-67
2024/02/27 07:30:48;;;;;;;;;;;;;;;2.51;100.00;101443.45;107998;1257;61126;-67
2024/02/27 07:33:16;;;;;;;;;;;;;;;2.62;100.00;101442.46;108011;1255;62096;-66
2024/02/27 07:35:44;;;;;;;;;;;;;;;2.74;100.00;101443.87;108009;1255;74690;-70
2024/02/27 07:38:11;;;;;;;;;;;;;;;2.88;100.00;101440.16;108055;1254;72730;-69
2024/02/27 07:40:39;;;;;;;;;;;;;;;3.04;100.00;101436.33;108015;1260;73713;-66
2024/02/27 07:43:07;;;;;;;;;;;;;;;3.18;100.00;101437.80;107964;1255;61226;-67
2024/02/27 07:45:35;;;;;;;;;;;;;;;3.31;100.00;101435.34;108006;1255;62008;-67
2024/02/27 07:48:03;;;;;;;;;;;;;;;3.45;100.00;101435.03;108011;1257;73403;-67
2024/02/27 07:50:32;;;;;;;;;;;;;;;3.53;100.00;101431.45;107999;1254;72423;-67
2024/02/27 07:53:00;;;;;;;;;;;;;;;3.64;100.00;101429.55;107930;1259;74920;-67
2024/02/27 07:55:28;;;;;;;;;;;;;;;3.78;100.00;101429.34;108010;1257;63086;-66
2024/02/27 07:57:55;;;;;;;;;;;;;;;3.98;100.00;101428.66;107964;1260;62055;-67
2024/02/27 08:00:24;;;;;;;;;;;;;;;4.20;100.00;101427.81;107992;1255;74709;-67
2024/02/27 08:02:52;;;;;;;;;;;;;;;4.44;100.00;101424.09;108027;1254;74677;-67
2024/02/27 08:05:22;;;;;;;;;;;;;;;4.69;100.00;101424.63;107916;1255;74168;-69
2024/02/27 08:07:49;;;;;;;;;;;;;;;4.93;100.00;101417.88;107946;1257;61911;-67
2024/02/27 08:10:17;;;;;;;;;;;;;;;5.15;100.00;101416.56;108017;1255;61198;-67
2024/02/27 08:12:45;;;;;;;;;;;;;;;5.38;100.00;101413.39;108004;1257;76859;-66
2024/02/27 08:15:13;;;;;;;;;;;;;;;5.60;100.00;101412.23;108074;1254;73283;-67
2024/02/27 08:17:44;;;;;;;;;;;;;;;5.80;99.80;101406.50;108006;1257;74944;-66
2024/02/27 08:20:12;;;;;;;;;;;;;;;5.99;96.72;101408.81;107957;1257;61323;-66
2024/02/27 08:22:39;;;;;;;;;;;;;;;6.16;93.68;101406.75;108104;1256;61210;-67
2024/02/27 08:25:08;;;;;;;;;;;;;;;6.31;90.14;101403.41;107997;1254;73740;-67
2024/02/27 08:27:36;;;;;;;;;;;;;;;6.43;86.03;101406.15;108015;1255;75607;-67
2024/02/27 08:30:04;;;;;;;;;;;;;;;6.52;83.72;101407.63;108019;1258;72212;-67
2024/02/27 08:32:32;;;;;;;;;;;;;;;6.65;81.66;101407.92;107942;1257;60146;-65
2024/02/27 08:35:00;;;;;;;;;;;;;;;6.77;80.40;101409.42;108030;1255;61991;-66
2024/02/27 08:37:29;;;;;;;;;;;;;;;6.90;78.49;101412.44;108035;1259;76856;-66
2024/02/27 08:39:58;;;;;;;;;;;;;;;7.00;76.19;101414.80;107923;1260;73287;-66
2024/02/27 08:42:26;;;;;;;;;;;;;;;7.08;74.74;101413.45;108115;1258;71836;-66
2024/02/27 08:44:54;;;;;;;;;;;;;;;7.17;73.67;101419.50;108089;1254;61668;-67
2024/02/27 08:47:22;;;;;;;;;;;;;;;7.24;72.54;101416.55;107978;1254;62019;-66
2024/02/27 08:49:50;;;;;;;;;;;;;;;7.30;70.79;101420.73;108022;1254;75039;-66
2024/02/27 08:52:18;;;;;;;;;;;;;;;7.34;69.80;101420.16;108020;1254;76000;-66
2024/02/27 08:54:45;;;;;;;;;;;;;;;7.40;68.81;101415.66;107915;1254;73229;-66
2024/02/27 08:57:13;;;;;;;;;;;;;;;7.44;67.49;101422.08;108052;1259;61228;-66
2024/02/27 08:59:46;;;;;;;;;;;;;;;7.48;66.45;101420.81;108185;1260;62000;-66
2024/02/27 09:02:14;;;;;;;;;;;;;;;7.50;65.57;101419.40;108169;1254;74822;-66
2024/02/27 09:04:42;;;;;;;;;;;;;;;7.54;65.25;101420.64;108007;1255;71084;-66
2024/02/27 09:07:11;;;;;;;;;;;;;;;7.61;64.80;101416.34;108174;1254;72493;-66
2024/02/27 09:09:39;;;;;;;;;;;;;;;7.68;64.29;101414.89;108136;1254;61383;-66
2024/02/27 09:12:09;;;;;;;;;;;;;;;7.76;63.31;101420.28;108084;1254;61224;-66
2024/02/27 09:14:37;;;;;;;;;;;;;;;7.81;62.52;101421.79;108189;1255;76913;-67
2024/02/27 09:17:05;;;;;;;;;;;;;;;7.84;61.77;101417.36;108159;1259;73497;-66
2024/02/27 09:19:33;;;;;;;;;;;;;;;7.87;61.21;101414.67;108157;1260;72749;-67
2024/02/27 09:22:00;;;;;;;;;;;;;;;7.90;60.73;101410.27;108203;1259;61534;-67
2024/02/27 09:24:28;;;;;;;;;;;;;;;7.94;60.27;101409.41;108039;1254;61143;-66
2024/02/27 09:26:56;;;;;;;;;;;;;;;7.98;59.99;101407.94;108109;1254;76943;-65
2024/02/27 09:29:24;;;;;;;;;;;;;;;8.04;59.71;101404.44;107962;1254;73463;-65
2024/02/27 09:31:52;;;;;;;;;;;;;;;8.10;59.53;101402.79;108154;1259;73863;-65
2024/02/27 09:34:20;;;;;;;;;;;;;;;8.17;59.27;101403.91;108007;1254;61577;-66
2024/02/27 09:36:48;;;;;;;;;;;;;;;8.26;59.06;101402.52;108064;1259;61926;-66
2024/02/27 09:39:15;;;;;;;;;;;;;;;8.32;58.17;101398.22;108097;1259;72547;-66
2024/02/27 09:41:43;;;;;;;;;;;;;;;8.33;57.81;101398.80;108044;1254;73165;-66
2024/02/27 09:44:11;;;;;;;;;;;;;;;8.35;57.38;101393.52;108059;1254;73127;-65
2024/02/27 09:46:38;;;;;;;;;;;;;;;8.40;57.45;101386.95;108074;1255;61077;-65
2024/02/27 09:49:06;;;;;;;;;;;;;;;8.47;57.10;101387.90;108098;1257;61156;-65
2024/02/27 09:51:34;;;;;;;;;;;;;;;8.53;56.79;101386.02;108118;1254;74831;-66
2024/02/27 09:54:02;;;;;;;;;;;;;;;8.58;56.16;101387.40;108051;1254;71824;-66
2024/02/27 09:56:29;;;;;;;;;;;;;;;8.63;55.94;101388.48;108069;1254;72828;-66
2024/02/27 09:58:59;;;;;;;;;;;;;;;8.69;55.60;101384.23;108057;1257;61461;-66
2024/02/27 10:01:28;;;;;;;;;;;;;;;8.76;55.59;101382.36;108061;1254;62007;-66
2024/02/27 10:03:56;;;;;;;;;;;;;;;8.82;54.88;101383.55;108076;1254;74823;-66
2024/02/27 10:06:24;;;;;;;;;;;;;;;8.84;54.69;101383.11;108039;1254;74942;-65
2024/02/27 10:08:54;;;;;;;;;;;;;;;8.87;54.64;101380.98;108097;1257;73907;-65
2024/02/27 10:11:21;;;;;;;;;;;;;;;8.92;54.25;101379.06;108075;1254;60405;-67
2024/02/27 10:13:49;;;;;;;;;;;;;;;8.98;54.21;101382.64;108074;1254;62028;-66
2024/02/27 10:16:21;;;;;;;;;;;;;;;9.04;53.60;101378.13;108079;1254;76857;-65
2024/02/27 10:18:49;;;;;;;;;;;;;;;9.09;52.79;101375.27;108033;1254;75019;-65
2024/02/27 10:21:17;;;;;;;;;;;;;;;9.13;52.54;101375.46;108005;1254;72948;-64
2024/02/27 10:23:45;;;;;;;;;;;;;;;9.19;52.12;101369.39;108170;1254;61306;-65
2024/02/27 10:26:13;;;;;;;;;;;;;;;9.26;51.17;101363.05;108044;1255;61119;-65
2024/02/27 10:28:41;;;;;;;;;;;;;;;9.30;50.94;101364.87;107825;1254;75005;-66
2024/02/27 10:31:09;;;;;;;;;;;;;;;9.34;50.85;101367.42;107976;1254;74948;-66
2024/02/27 10:33:37;;;;;;;;;;;;;;;9.37;50.73;101371.12;108012;1254;73101;-65
2024/02/27 10:36:06;;;;;;;;;;;;;;;9.40;50.97;101373.70;107976;1257;61073;-66
2024/02/27 10:38:34;;;;;;;;;;;;;;;9.44;52.60;101373.89;107949;1254;61903;-65
2024/02/27 10:41:02;;;;;;;;;;;;;;;9.48;53.26;101371.07;108052;1254;76886;-66
2024/02/27 10:43:32;;;;;;;;;;;;;;;9.57;52.27;101367.27;108001;1254;73242;-66
2024/02/27 10:46:00;;;;;;;;;;;;;;;9.67;51.63;101364.41;107998;1257;73082;-65
2024/02/27 10:48:27;;;;;;;;;;;;;;;9.78;51.11;101363.28;108021;1254;61257;-66
2024/02/27 10:51:07;;;;;;;;;;;;;;;9.84;50.76;101366.36;108139;1254;62377;-66
2024/02/27 10:53:35;;;;;;;;;;;;;;;9.89;51.38;101366.65;107978;1254;76908;-65
2024/02/27 10:56:03;;;;;;;;;;;;;;;9.91;52.40;101370.06;107947;1254;75078;-65
2024/02/27 10:58:31;;;;;;;;;;;;;;;9.88;53.38;101367.30;108036;1254;74585;-64
2024/02/27 11:00:58;;;;;;;;;;;;;;;9.71;53.83;101363.67;108051;1254;61463;-65
2024/02/27 11:03:26;;;;;;;;;;;;;;;9.55;54.53;101367.23;107974;1254;61267;-64
2024/02/27 11:05:54;;;;;;;;;;;;;;;9.54;53.43;101368.71;108104;1254;76867;-65
2024/02/27 11:08:23;;;;;;;;;;;;;;;9.61;53.73;101368.35;108049;1254;75046;-65
2024/02/27 11:10:51;;;;;;;;;;;;;;;9.64;54.56;101370.48;108089;1254;74886;-66
2024/02/27 11:13:19;;;;;;;;;;;;;;;9.64;55.06;101369.80;108109;1254;61516;-66
2024/02/27 11:15:47;;;;;;;;;;;;;;;9.64;55.33;101368.73;108072;1254;60276;-66
2024/02/27 11:18:15;;;;;;;;;;;;;;;9.58;55.63;101370.05;108019;1254;76901;-65
2024/02/27 11:20:43;;;;;;;;;;;;;;;9.59;56.00;101372.61;108124;1254;75025;-66
2024/02/27 11:23:11;;;;;;;;;;;;;;;9.67;56.10;101370.94;108215;1259;73554;-66
2024/02/27 11:25:38;;;;;;;;;;;;;;;9.74;55.65;101364.79;108188;1254;61697;-65
2024/02/27 11:28:06;;;;;;;;;;;;;;;9.77;55.02;101374.49;108218;1254;61013;-65
2024/02/27 11:30:34;;;;;;;;;;;;;;;9.84;53.94;101370.80;108209;1253;76871;-66
2024/02/27 11:33:02;;;;;;;;;;;;;;;9.88;54.19;101373.25;108219;1254;73264;-64
2024/02/27 11:35:31;;;;;;;;;;;;;;;9.89;54.48;101370.91;108212;1254;73905;-65
2024/02/27 11:37:59;;;;;;;;;;;;;;;9.94;53.69;101371.18;108169;1254;61526;-65
2024/02/27 11:40:43;;;;;;;;;;;;;;;9.99;52.09;101370.39;108182;1254;61077;-65
2024/02/27 11:43:11;;;;;;;;;;;;;;;10.07;50.46;101370.35;108091;1254;74684;-66
2024/02/27 11:45:39;;;;;;;;;;;;;;;10.12;49.90;101366.23;108121;1254;73847;-65
2024/02/27 11:48:09;;;;;;;;;;;;;;;10.16;49.55;101368.63;108117;1254;72945;-65
2024/02/27 11:50:38;;;;;;;;;;;;;;;10.20;49.33;101363.30;108160;1254;61633;-65
2024/02/27 11:53:16;;;;;;;;;;;;;;;10.21;49.15;101361.75;108049;1254;62025;-65
2024/02/27 11:55:44;;;;;;;;;;;;;;;10.23;48.93;101367.51;108056;1254;76880;-66
2024/02/27 11:58:11;;;;;;;;;;;;;;;10.24;48.52;101362.98;108174;1254;74030;-66
2024/02/27 12:00:39;;;;;;;;;;;;;;;10.23;48.57;101363.65;108187;1254;71505;-65
2024/02/27 12:03:07;;;;;;;;;;;;;;;10.20;48.61;101362.73;108124;1258;61404;-65
2024/02/27 12:05:36;;;;;;;;;;;;;;;10.16;48.63;101362.06;108078;1254;62149;-65
2024/02/27 12:08:04;;;;;;;;;;;;;;;10.13;48.73;101361.88;108161;1254;76944;-65
2024/02/27 12:10:32;;;;;;;;;;;;;;;10.10;48.72;101362.20;108052;1254;73888;-65
2024/02/27 12:13:00;;;;;;;;;;;;;;;10.08;48.88;101367.71;108131;1254;74845;-67
2024/02/27 12:15:27;;;;;;;;;;;;;;;10.05;48.81;101365.66;108044;1254;61371;-67
2024/02/27 12:17:55;;;;;;;;;;;;;;;10.00;48.80;101368.38;108169;1254;61122;-66
2024/02/27 12:20:23;;;;;;;;;;;;;;;9.98;48.68;101370.48;108130;1254;74817;-66
2024/02/27 12:22:53;;;;;;;;;;;;;;;9.98;48.27;101375.17;108156;1254;72752;-66
2024/02/27 12:25:21;;;;;;;;;;;;;;;9.97;48.26;101370.33;108049;1254;75423;-64
2024/02/27 12:27:52;;;;;;;;;;;;;;;9.96;48.28;101369.48;108131;1258;59996;-64
2024/02/27 12:30:22;;;;;;;;;;;;;;;9.95;48.20;101368.92;108151;1253;61078;-65
2024/02/27 12:32:51;;;;;;;;;;;;;;;9.94;48.34;101367.52;108140;1259;76063;-65
2024/02/27 12:35:19;;;;;;;;;;;;;;;9.94;48.24;101367.81;108102;1254;74909;-65